LSMEETSI

Guest
Details From LSME - Emmen
To ETSI - Ingolstadt Manching
Flight Number -
Tags generated
Created
Modified
Stats Distance 162 nm / 301 km
Max Altitude 21,200 ft / 6,462 m
Waypoints 3
Social Downloads 0
Likes 0
Share VATSIM

Download

Looking for another format? Having issues loading an existing format? Contact us
Advertisement - Login to hide

Notes

Basic altitude profile: - Ascent Rate: 2500ft/min - Ascent Speed: 250kts - Cruise Altitude: 35000ft - Cruise Speed: 420kts - Descent Rate: 1500ft/min - Descent Speed: 250kts Options: - Use NATs: yes - Use PACOTS: yes - Use low airways: yes - Use high airways: yes

Route

LSME ETOXU ETSI

ID Type Via Altitude Latitude Longitude Leg Dist Tot Dist Heading (true) Name
O LSME APT - 0 ft / 0 m 47.09237˚ 8.30512˚ - 0 nm - Emmen
ETOXU FIX - 21,200 ft / 6,462 m 47.72583˚ 9.55056˚ 63 nm 63 nm 53° / 54° -
O ETSI APT - 0 ft / 0 m 48.71509˚ 11.53406˚ 99 nm 162 nm 52° / 54° Ingolstadt Manching

Altitude Profile

Advertisement - Login to hide

Weather


0- 5 10 15 20 25 30 35+ Temperature / ° C

Clouds and Precipitation
Forecast for 2017-12-19 00:00 UTC. Updated an hour ago

Ground ~20,000 ft ~40,000 ft Winds

LSME

Details ICAO LSME
Name Emmen
Region Switzerland
Timezone Europe/Zurich (UTC+1.0)
Stats Elevation 1,400 ft / 427 m (AMSL)
Location 47.092369° 8.305118°
Runways 1
Magnetic Variation 2.285° E

METAR

LSME 181950Z AUTO 00000KT 5000NDV BKN016 OVC029 M00/M01 Q1027 RMK

Decode

TAF

TAF AMD LSME 181151Z 1811/1916 VRB03KT 6000 SCT005 BKN012 TEMPO 1811/1814 1500 -SN VV005 BECMG 1820/1823 4000 BR BKN005 PROB30 TEMPO 1900/1906 1200 -SN VV005 BECMG 1906/1909 5000 BKN016

Decode

Departure Runways

ID Width Length Bearing (true) Bearing (mag) Surface Threshold Offset Overrun Length
04 130 ft / 40 m 8,202 ft / 2,500 m 37.49° 35.20° Asphalt 363 ft / 111 m 810 ft / 247 m
22 130 ft / 40 m 8,202 ft / 2,500 m 217.51° 215.22° Asphalt 596 ft / 182 m 747 ft / 228 m

ETSI

Details ICAO ETSI
Name Ingolstadt Manching
Region Germany - Military
Timezone Europe/Berlin (UTC+1.0)
Stats Elevation 1,202 ft / 366 m (AMSL)
Location 48.715095° 11.534059°
Runways 2
Magnetic Variation 3.113° E

METAR

ETSI 182020Z AUTO 04001KT //// // ////// M01/M02 Q1027 ///

Decode

TAF

Not found

Destination Runways

ID Width Length Bearing (true) Bearing (mag) Surface Threshold Offset Overrun Length
07L 98 ft / 30 m 7,983 ft / 2,433 m 67.94° 64.83° Concrete 0 ft / 0 m 1,506 ft / 459 m
07R 197 ft / 60 m 9,642 ft / 2,939 m 68.14° 65.03° Asphalt 0 ft / 0 m 1,066 ft / 325 m
25L 197 ft / 60 m 9,642 ft / 2,939 m 248.17° 245.06° Asphalt 0 ft / 0 m 1,066 ft / 325 m
25R 98 ft / 30 m 7,983 ft / 2,433 m 247.97° 244.86° Concrete 602 ft / 183 m 1,050 ft / 320 m

Approach Navaids

Runway Type Ident Frequency Range Bearing (true) Bearing (mag) Slope Elevation
25L Localiser MG 108.10 MHz 18 nm / 33 km 248.36° 245.25° - 1,209 ft / 369 m (AMSL)
25L Glidescope MG 108.10 MHz 10 nm / 19 km 248.15° 245.04° 3.00° 1,229 ft / 375 m (AMSL)